createdAt,value
2022-09-11T00:02:05.051Z,13.53
2022-09-11T00:04:33.596Z,13.53
2022-09-11T00:07:01.555Z,13.54
2022-09-11T00:09:29.514Z,13.54
2022-09-11T00:11:57.538Z,13.54
2022-09-11T00:14:28.954Z,13.55
2022-09-11T00:16:59.119Z,13.55
2022-09-11T00:19:30.111Z,13.56
2022-09-11T00:21:58.033Z,13.54
2022-09-11T00:24:25.763Z,13.52
2022-09-11T00:26:53.473Z,13.50
2022-09-11T00:29:23.421Z,13.48
2022-09-11T00:31:51.977Z,13.48
2022-09-11T00:34:20.202Z,13.47
2022-09-11T00:36:50.292Z,13.46
2022-09-11T00:39:18.716Z,13.45
2022-09-11T00:41:49.596Z,13.44
2022-09-11T00:44:18.894Z,13.44
2022-09-11T00:46:55.833Z,13.43
2022-09-11T00:49:36.794Z,13.42
2022-09-11T00:52:10.645Z,13.42
2022-09-11T00:54:46.575Z,13.42
2022-09-11T00:57:14.440Z,13.43
2022-09-11T00:59:45.825Z,13.43
2022-09-11T01:02:23.222Z,13.45
2022-09-11T01:04:55.643Z,13.46
2022-09-11T01:07:26.634Z,13.48
2022-09-11T01:09:57.342Z,13.49
2022-09-11T01:12:43.946Z,13.50
2022-09-11T01:15:44.030Z,13.50
2022-09-11T01:18:15.595Z,13.51
2022-09-11T01:20:53.776Z,13.53
2022-09-11T01:24:01.052Z,13.55
2022-09-11T01:27:01.984Z,13.58
2022-09-11T01:29:44.928Z,13.60
2022-09-11T01:32:21.939Z,13.63
2022-09-11T01:35:14.792Z,13.65
2022-09-11T01:37:52.925Z,13.67
2022-09-11T01:40:54.904Z,13.69
2022-09-11T01:43:30.709Z,13.69
2022-09-11T01:46:03.601Z,13.69
2022-09-11T01:48:48.869Z,13.71
2022-09-11T01:51:27.299Z,13.72
2022-09-11T01:54:00.642Z,13.73
2022-09-11T01:56:41.446Z,13.71
2022-09-11T01:59:12.819Z,13.71
2022-09-11T02:01:47.272Z,13.72
2022-09-11T02:04:26.244Z,13.71
2022-09-11T02:07:03.185Z,13.72
2022-09-11T02:09:41.950Z,13.72
2022-09-11T02:12:17.778Z,13.71
2022-09-11T02:14:50.071Z,13.70
2022-09-11T02:17:31.632Z,13.67
2022-09-11T02:20:03.246Z,13.68
2022-09-11T02:22:33.446Z,13.69
2022-09-11T02:25:04.776Z,13.68
2022-09-11T02:27:34.999Z,13.68
2022-09-11T02:30:03.282Z,13.70
2022-09-11T02:32:40.807Z,13.70
2022-09-11T02:35:11.766Z,13.69
2022-09-11T02:37:59.275Z,13.71
2022-09-11T02:40:31.130Z,13.71
2022-09-11T02:43:27.595Z,13.69
2022-09-11T02:46:54.271Z,13.66
2022-09-11T02:49:41.999Z,13.63
2022-09-11T02:52:26.791Z,13.64
2022-09-11T02:54:56.197Z,13.63
2022-09-11T02:57:33.216Z,13.61
2022-09-11T03:00:07.140Z,13.59
2022-09-11T03:02:40.558Z,13.60
2022-09-11T03:05:11.774Z,13.59
2022-09-11T03:07:41.844Z,13.58
2022-09-11T03:10:12.163Z,13.57
2022-09-11T03:12:42.242Z,13.58
2022-09-11T03:15:17.444Z,13.59
2022-09-11T03:17:45.179Z,13.56
2022-09-11T03:20:13.130Z,13.56
2022-09-11T03:22:41.711Z,13.56
2022-09-11T03:25:14.283Z,13.54
2022-09-11T03:27:42.296Z,13.53
2022-09-11T03:30:14.831Z,13.51
2022-09-11T03:32:44.876Z,13.50
2022-09-11T03:35:12.603Z,13.49
2022-09-11T03:37:40.551Z,13.47
2022-09-11T03:40:10.989Z,13.46
2022-09-11T03:42:41.116Z,13.47
2022-09-11T03:45:12.105Z,13.44
2022-09-11T03:47:42.415Z,13.43
2022-09-11T03:50:11.890Z,13.41
2022-09-11T03:52:40.581Z,13.40
2022-09-11T03:55:10.899Z,13.39
2022-09-11T03:57:41.224Z,13.39
2022-09-11T04:00:11.859Z,13.40
2022-09-11T04:02:44.571Z,13.38
2022-09-11T04:05:12.482Z,13.36
2022-09-11T04:07:40.169Z,13.36
2022-09-11T04:10:13.112Z,13.36
2022-09-11T04:12:44.223Z,13.36
2022-09-11T04:15:12.223Z,13.36
2022-09-11T04:17:44.016Z,13.36
2022-09-11T04:20:12.003Z,13.37
2022-09-11T04:22:43.641Z,13.37
2022-09-11T04:25:16.629Z,13.37
2022-09-11T04:27:45.282Z,13.37
2022-09-11T04:30:15.350Z,13.38
2022-09-11T04:32:46.309Z,13.39
2022-09-11T04:35:16.654Z,13.39
2022-09-11T04:37:46.974Z,13.38
2022-09-11T04:40:15.843Z,13.39
2022-09-11T04:42:44.384Z,13.40
2022-09-11T04:45:14.781Z,13.40
2022-09-11T04:47:46.575Z,13.41
2022-09-11T04:50:14.361Z,13.43
2022-09-11T04:52:47.220Z,13.42
2022-09-11T04:55:17.644Z,13.44
2022-09-11T04:57:45.307Z,13.45
2022-09-11T05:00:17.987Z,13.47
2022-09-11T05:02:50.061Z,13.49
2022-09-11T05:05:20.375Z,13.51
2022-09-11T05:07:51.856Z,13.52
2022-09-11T05:10:22.191Z,13.52
2022-09-11T05:12:53.291Z,13.53
2022-09-11T05:15:21.209Z,13.53
2022-09-11T05:17:48.896Z,13.55
2022-09-11T05:20:19.139Z,13.57
2022-09-11T05:22:49.494Z,13.59
2022-09-11T05:25:19.529Z,13.61
2022-09-11T05:27:51.959Z,13.63
2022-09-11T05:30:20.638Z,13.64
2022-09-11T05:32:56.802Z,13.64
2022-09-11T05:35:30.448Z,13.66
2022-09-11T05:38:02.298Z,13.68
2022-09-11T05:40:32.661Z,13.72
2022-09-11T05:43:01.166Z,13.75
2022-09-11T05:45:34.276Z,13.77
2022-09-11T05:48:04.530Z,13.79
2022-09-11T05:50:37.129Z,13.82
2022-09-11T05:53:07.374Z,13.85
2022-09-11T05:55:37.605Z,13.88
2022-09-11T05:58:09.155Z,13.92
2022-09-11T06:00:37.106Z,13.97
2022-09-11T06:03:08.685Z,14.02
2022-09-11T06:05:38.534Z,14.05
2022-09-11T06:08:13.119Z,14.10
2022-09-11T06:10:48.995Z,14.16
2022-09-11T06:13:20.155Z,14.21
2022-09-11T06:15:50.161Z,14.25
2022-09-11T06:18:18.177Z,14.29
2022-09-11T06:20:55.860Z,14.32
2022-09-11T06:23:27.281Z,14.35
2022-09-11T06:26:03.583Z,14.36
2022-09-11T06:28:35.392Z,14.38
2022-09-11T06:31:05.971Z,14.38
2022-09-11T06:33:40.591Z,14.40
2022-09-11T06:36:14.115Z,14.39
2022-09-11T06:38:46.095Z,14.40
2022-09-11T06:41:16.471Z,14.41
2022-09-11T06:43:45.599Z,14.42
2022-09-11T06:46:19.146Z,14.44
2022-09-11T06:48:51.515Z,14.46
2022-09-11T06:51:23.664Z,14.49
2022-09-11T06:53:58.164Z,14.52
2022-09-11T06:56:34.826Z,14.55
2022-09-11T06:59:03.531Z,14.59
2022-09-11T07:01:33.761Z,14.62
2022-09-11T07:04:05.355Z,14.65
2022-09-11T07:06:37.053Z,14.68
2022-09-11T07:09:04.910Z,14.71
2022-09-11T07:11:36.767Z,14.75
2022-09-11T07:14:08.779Z,14.80
2022-09-11T07:16:37.753Z,14.85
2022-09-11T07:19:10.555Z,14.92
2022-09-11T07:21:39.566Z,14.96
2022-09-11T07:24:07.614Z,15.00
2022-09-11T07:26:36.695Z,15.04
2022-09-11T07:29:05.459Z,15.08
2022-09-11T07:31:34.751Z,15.11
2022-09-11T07:34:03.642Z,15.14
2022-09-11T07:36:35.921Z,15.15
2022-09-11T07:39:06.527Z,15.13
2022-09-11T07:41:35.036Z,15.10
2022-09-11T07:44:04.712Z,15.03
2022-09-11T07:46:38.395Z,14.98
2022-09-11T07:49:12.546Z,14.94
2022-09-11T07:51:43.733Z,14.89
2022-09-11T07:54:15.651Z,14.86
2022-09-11T07:56:43.512Z,14.85
2022-09-11T07:59:11.380Z,14.83
2022-09-11T08:01:42.658Z,14.84
2022-09-11T08:04:14.478Z,14.85
2022-09-11T08:06:47.371Z,14.83
2022-09-11T08:09:16.005Z,14.84
2022-09-11T08:11:50.058Z,14.80
2022-09-11T08:14:20.587Z,14.77
2022-09-11T08:16:51.480Z,14.75
2022-09-11T08:19:25.160Z,14.71
2022-09-11T08:21:54.098Z,14.67
2022-09-11T08:24:25.338Z,14.67
2022-09-11T08:27:04.547Z,14.65
2022-09-11T08:29:32.561Z,14.66
2022-09-11T08:32:02.563Z,14.69
2022-09-11T08:34:32.657Z,14.74
2022-09-11T08:37:00.711Z,14.80
2022-09-11T08:39:32.747Z,14.85
2022-09-11T08:42:16.808Z,14.92
2022-09-11T08:44:58.896Z,14.98
2022-09-11T08:47:34.703Z,15.01
2022-09-11T08:50:24.733Z,15.05
2022-09-11T08:52:56.895Z,15.11
2022-09-11T08:55:49.574Z,15.14
2022-09-11T08:58:39.219Z,15.15
2022-09-11T09:01:29.154Z,15.17
2022-09-11T09:04:41.789Z,15.17
2022-09-11T09:07:47.205Z,15.13
2022-09-11T09:10:47.175Z,15.11
2022-09-11T09:13:29.866Z,15.14
2022-09-11T09:16:26.844Z,15.19
2022-09-11T09:19:08.599Z,15.26
2022-09-11T09:21:39.984Z,15.31
2022-09-11T09:24:21.981Z,15.32
2022-09-11T09:26:58.987Z,15.35
2022-09-11T09:29:36.145Z,15.37
2022-09-11T09:32:15.206Z,15.39
2022-09-11T09:34:46.177Z,15.45
2022-09-11T09:37:22.927Z,15.50
2022-09-11T09:39:52.442Z,15.53
2022-09-11T09:42:31.215Z,15.57
2022-09-11T09:45:22.192Z,15.58
2022-09-11T09:47:51.180Z,15.59
2022-09-11T09:50:45.708Z,15.64
2022-09-11T09:53:29.136Z,15.68
2022-09-11T09:56:00.850Z,15.67
2022-09-11T09:58:39.898Z,15.63
2022-09-11T10:01:46.697Z,15.62
2022-09-11T10:04:16.021Z,15.60
2022-09-11T10:06:46.907Z,15.59
2022-09-11T10:09:23.922Z,15.59
2022-09-11T10:12:03.461Z,15.59
2022-09-11T10:14:51.201Z,15.57
2022-09-11T10:17:33.904Z,15.58
2022-09-11T10:20:23.777Z,15.59
2022-09-11T10:22:55.258Z,15.61
2022-09-11T10:25:30.226Z,15.64
2022-09-11T10:28:31.545Z,15.67
2022-09-11T10:31:08.864Z,15.68
2022-09-11T10:34:05.170Z,15.64
2022-09-11T10:36:35.152Z,15.60
2022-09-11T10:39:03.534Z,15.61
2022-09-11T10:41:35.310Z,15.72
2022-09-11T10:44:14.373Z,15.89
2022-09-11T10:46:43.972Z,16.05
2022-09-11T10:49:11.672Z,16.16
2022-09-11T10:51:47.349Z,16.28
2022-09-11T10:54:34.983Z,16.35
2022-09-11T10:57:26.411Z,16.38
2022-09-11T11:00:22.837Z,16.32
2022-09-11T11:03:11.156Z,16.25
2022-09-11T11:05:42.046Z,16.10
2022-09-11T11:08:17.812Z,16.03
2022-09-11T11:11:04.294Z,16.01
2022-09-11T11:13:51.876Z,15.98
2022-09-11T11:16:47.747Z,15.92
2022-09-11T11:19:38.388Z,15.93
2022-09-11T11:22:13.543Z,15.94
2022-09-11T11:24:53.223Z,15.94
2022-09-11T11:27:45.168Z,15.97
2022-09-11T11:30:20.115Z,16.01
2022-09-11T11:33:10.144Z,16.09
2022-09-11T11:36:09.003Z,16.18
2022-09-11T11:38:49.032Z,16.24
2022-09-11T11:41:28.519Z,16.31
2022-09-11T11:44:01.782Z,16.41
2022-09-11T11:46:39.468Z,16.54
2022-09-11T11:49:24.417Z,16.65
2022-09-11T11:52:15.053Z,16.74
2022-09-11T11:54:52.423Z,16.82
2022-09-11T11:57:24.141Z,16.90
2022-09-11T12:00:13.849Z,16.97
2022-09-11T12:03:03.821Z,17.02
2022-09-11T12:05:34.723Z,17.08
2022-09-11T12:08:03.552Z,17.11
2022-09-11T12:10:39.085Z,17.15
2022-09-11T12:13:12.882Z,17.20
2022-09-11T12:16:10.692Z,17.25
2022-09-11T12:18:42.789Z,17.31
2022-09-11T12:21:32.424Z,17.33
2022-09-11T12:24:02.855Z,17.35
2022-09-11T12:26:32.206Z,17.37
2022-09-11T12:29:16.333Z,17.45
2022-09-11T12:31:51.052Z,17.51
2022-09-11T12:34:25.921Z,17.56
2022-09-11T12:37:12.411Z,17.62
2022-09-11T12:39:57.150Z,17.69
2022-09-11T12:42:26.240Z,17.73
2022-09-11T12:44:56.251Z,17.72
2022-09-11T12:47:35.750Z,17.71
2022-09-11T12:50:06.718Z,17.69
2022-09-11T12:52:44.433Z,17.69
2022-09-11T12:55:50.694Z,17.70
2022-09-11T12:58:19.975Z,17.72
2022-09-11T13:01:02.900Z,17.73
2022-09-11T13:03:34.761Z,17.70
2022-09-11T13:06:13.788Z,17.69
2022-09-11T13:09:01.201Z,17.68
2022-09-11T13:11:50.786Z,17.61
2022-09-11T13:14:46.077Z,17.57
2022-09-11T13:17:26.855Z,17.51
2022-09-11T13:20:09.595Z,17.49
2022-09-11T13:22:38.729Z,17.48
2022-09-11T13:25:15.439Z,17.48
2022-09-11T13:28:02.896Z,17.41
2022-09-11T13:30:30.904Z,17.26
2022-09-11T13:33:07.167Z,17.10
2022-09-11T13:35:40.881Z,16.89
2022-09-11T13:38:16.966Z,16.64
2022-09-11T13:40:59.446Z,16.47
2022-09-11T13:43:31.696Z,16.27
2022-09-11T13:46:24.456Z,16.12
2022-09-11T13:48:57.884Z,16.02
2022-09-11T13:51:31.396Z,15.97
2022-09-11T13:54:09.419Z,15.93
2022-09-11T13:56:46.585Z,15.87
2022-09-11T13:59:45.013Z,15.81
2022-09-11T14:02:16.929Z,15.78
2022-09-11T14:04:47.373Z,15.76
2022-09-11T14:07:28.014Z,15.76
2022-09-11T14:10:24.637Z,15.75
2022-09-11T14:13:23.296Z,15.69
2022-09-11T14:15:58.790Z,15.64
2022-09-11T14:18:53.166Z,15.64
2022-09-11T14:21:31.165Z,15.64
2022-09-11T14:24:00.094Z,15.58
2022-09-11T14:26:30.918Z,15.55
2022-09-11T14:29:23.692Z,15.54
2022-09-11T14:31:54.340Z,15.54
2022-09-11T14:34:27.502Z,15.52
2022-09-11T14:37:05.444Z,15.47
2022-09-11T14:39:41.812Z,15.45
2022-09-11T14:42:16.348Z,15.45
2022-09-11T14:44:45.102Z,15.44
2022-09-11T14:47:18.321Z,15.44
2022-09-11T14:49:48.308Z,15.44
2022-09-11T14:52:20.600Z,15.43
2022-09-11T14:54:49.715Z,15.43
2022-09-11T14:57:23.338Z,15.41
2022-09-11T14:59:53.022Z,15.41
2022-09-11T15:02:24.094Z,15.40
2022-09-11T15:04:57.249Z,15.42
2022-09-11T15:07:27.596Z,15.41
2022-09-11T15:09:56.346Z,15.41
2022-09-11T15:12:24.999Z,15.42
2022-09-11T15:14:57.630Z,15.43
2022-09-11T15:17:32.005Z,15.44
2022-09-11T15:20:01.784Z,15.44
2022-09-11T15:22:32.084Z,15.44
2022-09-11T15:25:01.174Z,15.46
2022-09-11T15:27:31.688Z,15.47
2022-09-11T15:30:01.539Z,15.49
2022-09-11T15:32:29.694Z,15.50
2022-09-11T15:34:59.202Z,15.50
2022-09-11T15:37:26.988Z,15.50
2022-09-11T15:39:55.367Z,15.48
2022-09-11T15:42:26.506Z,15.48
2022-09-11T15:44:57.123Z,15.44
2022-09-11T15:47:25.103Z,15.42
2022-09-11T15:49:53.676Z,15.41
2022-09-11T15:52:23.481Z,15.40
2022-09-11T15:54:52.255Z,15.38
2022-09-11T15:57:20.925Z,15.36
2022-09-11T15:59:52.613Z,15.36
2022-09-11T16:02:24.157Z,15.36
2022-09-11T16:04:54.650Z,15.34
2022-09-11T16:07:23.235Z,15.31
2022-09-11T16:09:53.200Z,15.32
2022-09-11T16:12:21.155Z,15.30
2022-09-11T16:14:51.386Z,15.26
2022-09-11T16:17:21.745Z,15.24
2022-09-11T16:19:51.623Z,15.21
2022-09-11T16:22:19.561Z,15.16
2022-09-11T16:24:47.309Z,15.12
2022-09-11T16:27:15.029Z,15.10
2022-09-11T16:30:26.207Z,15.09
2022-09-11T16:32:39.101Z,15.06
2022-09-11T16:35:13.343Z,15.03
2022-09-11T16:37:42.628Z,14.97
2022-09-11T16:40:12.263Z,14.92
2022-09-11T16:42:41.706Z,14.89
2022-09-11T16:45:11.125Z,14.88
2022-09-11T16:47:40.349Z,14.86
2022-09-11T16:50:09.531Z,14.83
2022-09-11T16:52:39.617Z,14.81
2022-09-11T16:55:12.943Z,14.78
2022-09-11T16:57:40.934Z,14.74
2022-09-11T17:00:10.879Z,14.70
2022-09-11T17:02:43.931Z,14.68
2022-09-11T17:05:13.037Z,14.68
2022-09-11T17:07:42.899Z,14.68
2022-09-11T17:10:10.857Z,14.67
2022-09-11T17:12:39.769Z,14.66
2022-09-11T17:15:09.500Z,14.65
2022-09-11T17:17:39.077Z,14.63
2022-09-11T17:20:11.727Z,14.60
2022-09-11T17:22:41.167Z,14.56
2022-09-11T17:25:12.923Z,14.53
2022-09-11T17:27:43.507Z,14.49
2022-09-11T17:30:14.260Z,14.45
2022-09-11T17:32:45.833Z,14.44
2022-09-11T17:35:15.368Z,14.42
2022-09-11T17:37:46.066Z,14.39
2022-09-11T17:40:15.878Z,14.35
2022-09-11T17:42:49.311Z,14.28
2022-09-11T17:45:17.427Z,14.23
2022-09-11T17:47:45.450Z,14.17
2022-09-11T17:50:15.483Z,14.15
2022-09-11T17:52:45.823Z,14.12
2022-09-11T17:55:13.863Z,14.06
2022-09-11T17:57:44.454Z,14.00
2022-09-11T18:00:14.504Z,13.92
2022-09-11T18:02:44.825Z,13.85
2022-09-11T18:05:12.715Z,13.78
2022-09-11T18:07:43.464Z,13.76
2022-09-11T18:10:11.521Z,13.76
2022-09-11T18:12:39.467Z,13.76
2022-09-11T18:15:09.801Z,13.72
2022-09-11T18:17:39.644Z,13.67
2022-09-11T18:20:09.667Z,13.63
2022-09-11T18:22:40.287Z,13.60
2022-09-11T18:25:11.530Z,13.58
2022-09-11T18:27:41.161Z,13.58
2022-09-11T18:30:12.848Z,13.57
2022-09-11T18:32:42.931Z,13.55
2022-09-11T18:35:12.098Z,13.50
2022-09-11T18:37:40.602Z,13.46
2022-09-11T18:40:10.541Z,13.43
2022-09-11T18:42:44.084Z,13.42
2022-09-11T18:45:14.331Z,13.42
2022-09-11T18:47:45.677Z,13.39
2022-09-11T18:50:13.864Z,13.38
2022-09-11T18:52:42.463Z,13.37
2022-09-11T18:55:11.170Z,13.36
2022-09-11T18:57:43.072Z,13.35
2022-09-11T19:00:17.396Z,13.35
2022-09-11T19:02:48.232Z,13.32
2022-09-11T19:05:18.039Z,13.31
2022-09-11T19:07:48.779Z,13.30
2022-09-11T19:10:19.202Z,13.28
2022-09-11T19:12:48.802Z,13.28
2022-09-11T19:15:19.607Z,13.28
2022-09-11T19:17:49.321Z,13.29
2022-09-11T19:20:19.894Z,13.30
2022-09-11T19:22:48.950Z,13.29
2022-09-11T19:25:19.303Z,13.28
2022-09-11T19:27:48.224Z,13.26
2022-09-11T19:30:16.838Z,13.25
2022-09-11T19:32:45.870Z,13.21
2022-09-11T19:35:15.096Z,13.19
2022-09-11T19:37:43.508Z,13.14
2022-09-11T19:40:14.233Z,13.11
2022-09-11T19:42:44.901Z,13.11
2022-09-11T19:45:12.594Z,13.10
2022-09-11T19:47:43.554Z,13.08
2022-09-11T19:50:13.254Z,13.08
2022-09-11T19:52:41.253Z,13.08
2022-09-11T19:55:10.414Z,13.06
2022-09-11T19:57:40.595Z,13.06
2022-09-11T20:00:10.290Z,13.05
2022-09-11T20:02:38.397Z,13.05
2022-09-11T20:05:11.894Z,13.03
2022-09-11T20:07:39.659Z,13.01
2022-09-11T20:10:10.604Z,13.00
2022-09-11T20:12:38.597Z,12.99
2022-09-11T20:15:10.213Z,12.97
2022-09-11T20:17:42.417Z,12.97
2022-09-11T20:20:11.899Z,12.95
2022-09-11T20:22:39.882Z,12.94
2022-09-11T20:25:08.569Z,12.95
2022-09-11T20:27:36.342Z,12.97
2022-09-11T20:30:10.732Z,12.95
2022-09-11T20:32:39.476Z,12.94
2022-09-11T20:35:07.990Z,12.91
2022-09-11T20:37:40.362Z,12.91
2022-09-11T20:40:11.920Z,12.91
2022-09-11T20:42:40.132Z,12.89
2022-09-11T20:45:13.791Z,12.89
2022-09-11T20:47:41.566Z,12.88
2022-09-11T20:50:13.414Z,12.85
2022-09-11T20:52:47.790Z,12.84
2022-09-11T20:55:15.855Z,12.82
2022-09-11T20:57:47.633Z,12.78
2022-09-11T21:00:18.209Z,12.78
2022-09-11T21:02:46.110Z,12.77
2022-09-11T21:05:15.844Z,12.76
2022-09-11T21:07:47.613Z,12.75
2022-09-11T21:10:15.344Z,12.72
2022-09-11T21:12:43.265Z,12.70
2022-09-11T21:15:13.305Z,12.67
2022-09-11T21:17:41.038Z,12.64
2022-09-11T21:20:12.936Z,12.63
2022-09-11T21:22:42.465Z,12.61
2022-09-11T21:25:12.144Z,12.60
2022-09-11T21:27:40.126Z,12.61
2022-09-11T21:30:12.204Z,12.60
2022-09-11T21:32:40.160Z,12.60
2022-09-11T21:35:09.813Z,12.60
2022-09-11T21:37:40.590Z,12.62
2022-09-11T21:40:12.241Z,12.63
2022-09-11T21:42:40.217Z,12.63
2022-09-11T21:45:11.761Z,12.61
2022-09-11T21:47:39.808Z,12.60
2022-09-11T21:50:11.578Z,12.61
2022-09-11T21:52:39.723Z,12.60
2022-09-11T21:55:11.439Z,12.60
2022-09-11T21:57:39.455Z,12.60
2022-09-11T22:00:12.828Z,12.58
2022-09-11T22:02:41.664Z,12.57
2022-09-11T22:05:10.104Z,12.56
2022-09-11T22:07:42.340Z,12.56
2022-09-11T22:10:12.825Z,12.57
2022-09-11T22:12:42.862Z,12.55
2022-09-11T22:15:12.909Z,12.54
2022-09-11T22:17:42.870Z,12.51
2022-09-11T22:20:10.924Z,12.51
2022-09-11T22:22:43.106Z,12.49
2022-09-11T22:25:11.096Z,12.49
2022-09-11T22:27:42.933Z,12.49
2022-09-11T22:30:14.411Z,12.49
2022-09-11T22:32:42.251Z,12.48
2022-09-11T22:35:10.190Z,12.48
2022-09-11T22:37:38.114Z,12.47
2022-09-11T22:40:11.340Z,12.47
2022-09-11T22:42:39.415Z,12.48
2022-09-11T22:45:12.947Z,12.47
2022-09-11T22:47:42.248Z,12.48
2022-09-11T22:50:13.294Z,12.48
2022-09-11T22:52:42.997Z,12.48
2022-09-11T22:55:11.204Z,12.47
2022-09-11T22:57:43.143Z,12.47
2022-09-11T23:00:15.093Z,12.47
2022-09-11T23:02:43.065Z,12.47
2022-09-11T23:05:32.046Z,12.48
2022-09-11T23:08:00.004Z,12.49
2022-09-11T23:10:28.259Z,12.47
2022-09-11T23:12:56.220Z,12.46
2022-09-11T23:15:31.346Z,12.46
2022-09-11T23:17:59.260Z,12.45
2022-09-11T23:20:27.169Z,12.45
2022-09-11T23:23:00.293Z,12.45
2022-09-11T23:25:28.501Z,12.45
2022-09-11T23:27:58.678Z,12.44
2022-09-11T23:30:30.241Z,12.43
2022-09-11T23:32:58.471Z,12.42
2022-09-11T23:35:26.398Z,12.42
2022-09-11T23:37:54.339Z,12.42
2022-09-11T23:40:24.387Z,12.42
2022-09-11T23:42:52.073Z,12.41
2022-09-11T23:45:20.844Z,12.41
2022-09-11T23:47:53.389Z,12.40
2022-09-11T23:50:25.153Z,12.39
2022-09-11T23:52:53.695Z,12.37
2022-09-11T23:55:26.007Z,12.35
2022-09-11T23:57:56.489Z,12.34
